createdAt,value
2018-08-30T00:01:21.397Z,21.70
2018-08-30T00:03:50.372Z,21.70
2018-08-30T00:06:19.434Z,21.70
2018-08-30T00:08:48.357Z,21.60
2018-08-30T00:11:17.267Z,21.60
2018-08-30T00:13:46.172Z,21.50
2018-08-30T00:16:15.050Z,21.40
2018-08-30T00:18:43.934Z,21.40
2018-08-30T00:21:13.046Z,21.40
2018-08-30T00:23:41.967Z,21.20
2018-08-30T00:26:10.874Z,21.20
2018-08-30T00:28:39.779Z,21.30
2018-08-30T00:31:08.772Z,21.20
2018-08-30T00:33:37.774Z,21.20
2018-08-30T00:36:06.717Z,21.20
2018-08-30T00:38:35.614Z,21.20
2018-08-30T00:41:04.534Z,21.10
2018-08-30T00:43:33.418Z,21.10
2018-08-30T00:46:02.334Z,21.10
2018-08-30T00:48:31.722Z,21.00
2018-08-30T00:51:00.638Z,21.00
2018-08-30T00:53:29.557Z,21.00
2018-08-30T00:55:58.511Z,20.90
2018-08-30T00:58:27.442Z,20.90
2018-08-30T01:00:56.503Z,20.70
2018-08-30T01:03:25.526Z,20.60
2018-08-30T01:05:54.518Z,20.60
2018-08-30T01:08:23.433Z,20.60
2018-08-30T01:10:52.539Z,20.50
2018-08-30T01:13:21.438Z,20.50
2018-08-30T01:15:50.317Z,20.30
2018-08-30T01:18:19.202Z,20.30
2018-08-30T01:20:48.106Z,20.00
2018-08-30T01:23:17.018Z,19.90
2018-08-30T01:25:45.946Z,19.90
2018-08-30T01:28:14.839Z,19.70
2018-08-30T01:30:43.822Z,19.60
2018-08-30T01:33:12.750Z,19.60
2018-08-30T01:35:42.060Z,19.50
2018-08-30T01:38:10.949Z,19.40
2018-08-30T01:40:39.905Z,19.40
2018-08-30T01:43:08.790Z,19.40
2018-08-30T01:45:37.739Z,19.30
2018-08-30T01:48:06.623Z,19.30
2018-08-30T01:50:35.519Z,19.40
2018-08-30T01:53:04.427Z,19.40
2018-08-30T01:55:33.362Z,19.30
2018-08-30T01:58:02.349Z,19.40
2018-08-30T02:00:31.278Z,19.40
2018-08-30T02:03:00.334Z,19.40
2018-08-30T02:05:29.309Z,19.40
2018-08-30T02:07:58.277Z,19.40
2018-08-30T02:10:27.439Z,19.40
2018-08-30T02:12:56.347Z,19.40
2018-08-30T02:15:25.414Z,19.40
2018-08-30T02:17:54.333Z,19.40
2018-08-30T02:20:23.262Z,19.40
2018-08-30T02:22:52.138Z,19.40
2018-08-30T02:25:21.038Z,19.40
2018-08-30T02:27:49.922Z,19.50
2018-08-30T02:30:19.130Z,19.50
2018-08-30T02:32:48.111Z,19.50
2018-08-30T02:35:17.045Z,19.60
2018-08-30T02:37:45.934Z,19.60
2018-08-30T02:40:14.837Z,19.50
2018-08-30T02:42:43.738Z,19.40
2018-08-30T02:45:12.650Z,19.40
2018-08-30T02:47:41.554Z,19.40
2018-08-30T02:50:10.465Z,19.40
2018-08-30T02:52:39.344Z,19.40
2018-08-30T02:55:08.667Z,19.30
2018-08-30T02:57:37.538Z,19.10
2018-08-30T03:00:06.939Z,18.90
2018-08-30T03:02:35.846Z,18.70
2018-08-30T03:05:04.797Z,18.60
2018-08-30T03:07:33.727Z,18.60
2018-08-30T03:10:02.659Z,18.40
2018-08-30T03:12:31.650Z,18.40
2018-08-30T03:15:08.923Z,18.40
2018-08-30T03:17:37.806Z,18.30
2018-08-30T03:20:08.673Z,18.30
2018-08-30T03:22:38.710Z,18.30
2018-08-30T03:25:07.915Z,18.30
2018-08-30T03:27:36.962Z,18.30
2018-08-30T03:30:06.901Z,18.40
2018-08-30T03:32:36.018Z,18.30
2018-08-30T03:35:05.001Z,18.30
2018-08-30T03:37:33.998Z,18.30
2018-08-30T03:40:02.895Z,18.30
2018-08-30T03:42:31.780Z,18.40
2018-08-30T03:45:00.690Z,18.50
2018-08-30T03:47:29.618Z,18.40
2018-08-30T03:49:58.540Z,18.40
2018-08-30T03:52:27.483Z,18.40
2018-08-30T03:54:56.420Z,18.50
2018-08-30T03:57:25.346Z,18.40
2018-08-30T03:59:54.245Z,18.40
2018-08-30T04:02:23.158Z,18.30
2018-08-30T04:04:52.030Z,18.30
2018-08-30T04:07:20.959Z,18.30
2018-08-30T04:09:49.867Z,18.20
2018-08-30T04:12:18.797Z,18.20
2018-08-30T04:14:47.721Z,18.10
2018-08-30T04:17:16.678Z,18.20
2018-08-30T04:19:45.529Z,18.20
2018-08-30T04:22:14.437Z,18.20
2018-08-30T04:24:43.332Z,18.20
2018-08-30T04:27:12.373Z,18.10
2018-08-30T04:29:41.912Z,18.10
2018-08-30T04:32:10.814Z,18.00
2018-08-30T04:34:39.716Z,18.00
2018-08-30T04:37:08.629Z,17.90
2018-08-30T04:39:37.610Z,17.90
2018-08-30T04:42:06.548Z,17.80
2018-08-30T04:44:35.484Z,17.70
2018-08-30T04:47:04.630Z,17.70
2018-08-30T04:49:33.533Z,17.60
2018-08-30T04:52:02.445Z,17.60
2018-08-30T04:54:31.366Z,17.60
2018-08-30T04:57:00.314Z,17.60
2018-08-30T04:59:29.230Z,17.50
2018-08-30T05:01:58.186Z,17.50
2018-08-30T05:04:27.176Z,17.40
2018-08-30T05:06:56.120Z,17.40
2018-08-30T05:09:25.082Z,17.40
2018-08-30T05:11:54.069Z,17.40
2018-08-30T05:14:23.038Z,17.40
2018-08-30T05:16:51.974Z,17.40
2018-08-30T05:19:20.889Z,17.50
2018-08-30T05:21:49.881Z,17.50
2018-08-30T05:24:18.782Z,17.40
2018-08-30T05:26:47.686Z,17.50
2018-08-30T05:29:16.572Z,17.50
2018-08-30T05:31:45.581Z,17.50
2018-08-30T05:34:14.531Z,17.50
2018-08-30T05:36:43.722Z,17.50
2018-08-30T05:39:12.657Z,17.50
2018-08-30T05:41:41.586Z,17.60
2018-08-30T05:44:11.475Z,17.70
2018-08-30T05:46:40.417Z,17.60
2018-08-30T05:49:09.306Z,17.60
2018-08-30T05:51:38.766Z,17.60
2018-08-30T05:54:08.296Z,17.60
2018-08-30T05:56:37.223Z,17.60
2018-08-30T05:59:06.253Z,17.70
2018-08-30T06:01:35.158Z,17.60
2018-08-30T06:04:04.071Z,17.50
2018-08-30T06:06:33.915Z,17.50
2018-08-30T06:09:02.913Z,17.50
2018-08-30T06:11:31.797Z,17.50
2018-08-30T06:14:00.742Z,17.40
2018-08-30T06:16:34.181Z,17.40
2018-08-30T06:19:09.173Z,17.40
2018-08-30T06:21:38.046Z,17.40
2018-08-30T06:24:07.410Z,17.40
2018-08-30T06:26:36.339Z,17.40
2018-08-30T06:29:05.893Z,17.40
2018-08-30T06:31:34.761Z,17.50
2018-08-30T06:34:03.764Z,17.60
2018-08-30T06:36:32.730Z,17.70
2018-08-30T06:39:01.637Z,17.70
2018-08-30T06:41:30.714Z,17.90
2018-08-30T06:43:59.685Z,17.90
2018-08-30T06:46:28.618Z,17.90
2018-08-30T06:48:57.558Z,17.80
2018-08-30T06:51:26.554Z,17.90
2018-08-30T06:53:55.623Z,18.00
2018-08-30T06:56:24.608Z,18.10
2018-08-30T06:58:53.585Z,18.30
2018-08-30T07:01:22.701Z,18.30
2018-08-30T07:03:51.584Z,18.30
2018-08-30T07:06:20.447Z,18.20
2018-08-30T07:08:49.353Z,18.10
2018-08-30T07:11:18.253Z,18.10
2018-08-30T07:13:47.166Z,17.90
2018-08-30T07:16:17.045Z,17.80
2018-08-30T07:18:46.497Z,17.90
2018-08-30T07:21:15.717Z,17.90
2018-08-30T07:23:44.610Z,17.80
2018-08-30T07:26:13.533Z,17.90
2018-08-30T07:28:42.883Z,17.90
2018-08-30T07:31:12.529Z,17.90
2018-08-30T07:33:41.422Z,17.90
2018-08-30T07:36:10.654Z,17.90
2018-08-30T07:38:39.791Z,18.00
2018-08-30T07:41:08.766Z,18.00
2018-08-30T07:43:38.602Z,17.90
2018-08-30T07:46:07.657Z,17.80
2018-08-30T07:48:36.580Z,17.80
2018-08-30T07:51:06.956Z,17.80
2018-08-30T07:53:36.939Z,17.80
2018-08-30T07:56:06.479Z,17.90
2018-08-30T07:58:37.314Z,17.90
2018-08-30T08:01:06.350Z,17.90
2018-08-30T08:03:35.802Z,17.90
2018-08-30T08:06:04.785Z,18.00
2018-08-30T08:08:33.669Z,17.90
2018-08-30T08:11:02.571Z,17.90
2018-08-30T08:13:31.466Z,17.90
2018-08-30T08:16:00.386Z,17.80
2018-08-30T08:18:29.338Z,17.80
2018-08-30T08:20:58.489Z,17.80
2018-08-30T08:23:27.426Z,18.00
2018-08-30T08:25:56.371Z,18.00
2018-08-30T08:28:26.170Z,18.00
2018-08-30T08:31:01.309Z,18.00
2018-08-30T08:33:30.359Z,18.00
2018-08-30T08:35:59.278Z,18.10
2018-08-30T08:38:30.873Z,18.20
2018-08-30T08:40:59.833Z,18.40
2018-08-30T08:43:28.907Z,18.70
2018-08-30T08:45:58.010Z,18.80
2018-08-30T08:48:26.933Z,18.90
2018-08-30T08:50:55.905Z,19.00
2018-08-30T08:53:24.817Z,19.20
2018-08-30T08:55:53.760Z,19.30
2018-08-30T08:58:22.668Z,19.30
2018-08-30T09:00:51.562Z,19.20
2018-08-30T09:03:20.470Z,19.10
2018-08-30T09:05:49.350Z,19.10
2018-08-30T09:08:18.260Z,19.30
2018-08-30T09:10:47.205Z,19.40
2018-08-30T09:13:16.083Z,19.50
2018-08-30T09:15:44.973Z,19.40
2018-08-30T09:18:13.877Z,19.40
2018-08-30T09:20:42.745Z,19.30
2018-08-30T09:23:11.717Z,19.00
2018-08-30T09:25:40.590Z,19.00
2018-08-30T09:28:09.532Z,19.00
2018-08-30T09:30:38.419Z,18.90
2018-08-30T09:33:07.773Z,18.90
2018-08-30T09:35:36.786Z,18.80
2018-08-30T09:38:06.523Z,18.60
2018-08-30T09:40:35.450Z,18.30
2018-08-30T09:43:04.367Z,18.30
2018-08-30T09:45:33.279Z,18.20
2018-08-30T09:48:02.153Z,18.10
2018-08-30T09:50:31.078Z,18.20
2018-08-30T09:53:00.056Z,18.10
2018-08-30T09:55:28.982Z,18.00
2018-08-30T09:57:57.904Z,18.10
2018-08-30T10:00:32.222Z,18.20
2018-08-30T10:03:01.115Z,18.30
2018-08-30T10:05:30.048Z,18.50
2018-08-30T10:07:58.948Z,18.70
2018-08-30T10:10:28.158Z,18.60
2018-08-30T10:12:57.162Z,18.60
2018-08-30T10:15:26.911Z,18.60
2018-08-30T10:17:55.910Z,18.50
2018-08-30T10:20:24.889Z,18.60
2018-08-30T10:22:54.743Z,18.40
2018-08-30T10:25:23.700Z,18.20
2018-08-30T10:27:52.542Z,18.20
2018-08-30T10:30:22.572Z,18.10
2018-08-30T10:32:51.515Z,18.00
2018-08-30T10:35:20.397Z,17.90
2018-08-30T10:37:49.469Z,17.90
2018-08-30T10:40:19.146Z,18.10
2018-08-30T10:42:48.165Z,18.10
2018-08-30T10:45:17.087Z,17.90
2018-08-30T10:47:46.717Z,17.80
2018-08-30T10:50:15.837Z,17.90
2018-08-30T10:52:44.835Z,17.90
2018-08-30T10:55:17.276Z,17.90
2018-08-30T10:57:51.935Z,17.80
2018-08-30T11:00:23.701Z,17.70
2018-08-30T11:02:54.236Z,17.80
2018-08-30T11:05:23.846Z,17.80
2018-08-30T11:07:52.852Z,17.90
2018-08-30T11:10:21.839Z,18.10
2018-08-30T11:12:50.816Z,18.20
2018-08-30T11:15:20.829Z,18.20
2018-08-30T11:17:49.715Z,18.30
2018-08-30T11:20:18.727Z,18.40
2018-08-30T11:22:47.620Z,18.40
2018-08-30T11:25:16.530Z,18.40
2018-08-30T11:27:45.622Z,18.40
2018-08-30T11:30:14.522Z,18.40
2018-08-30T11:32:43.426Z,18.60
2018-08-30T11:35:12.323Z,18.80
2018-08-30T11:37:41.300Z,18.90
2018-08-30T11:40:10.370Z,19.00
2018-08-30T11:42:39.335Z,19.00
2018-08-30T11:45:10.146Z,19.00
2018-08-30T11:47:39.085Z,19.00
2018-08-30T11:50:08.026Z,18.90
2018-08-30T11:52:36.997Z,18.90
2018-08-30T11:55:05.899Z,19.10
2018-08-30T11:57:34.790Z,19.30
2018-08-30T12:00:03.753Z,19.40
2018-08-30T12:02:34.070Z,19.20
2018-08-30T12:05:03.502Z,19.20
2018-08-30T12:07:32.437Z,19.30
2018-08-30T12:10:03.728Z,19.50
2018-08-30T12:12:32.874Z,19.60
2018-08-30T12:15:02.794Z,19.70
2018-08-30T12:17:31.731Z,19.90
2018-08-30T12:20:00.622Z,20.00
2018-08-30T12:22:29.590Z,20.00
2018-08-30T12:24:58.546Z,20.50
2018-08-30T12:27:27.474Z,21.10
2018-08-30T12:29:56.413Z,21.60
2018-08-30T12:32:25.377Z,21.50
2018-08-30T12:34:54.308Z,21.50
2018-08-30T12:37:23.180Z,21.50
2018-08-30T12:39:52.153Z,21.50
2018-08-30T12:42:21.007Z,21.40
2018-08-30T12:44:50.011Z,21.30
2018-08-30T12:47:18.875Z,21.10
2018-08-30T12:49:47.777Z,21.10
2018-08-30T12:52:16.730Z,21.40
2018-08-30T12:54:45.736Z,22.10
2018-08-30T12:57:14.697Z,22.50
2018-08-30T12:59:43.636Z,22.50
2018-08-30T13:02:12.575Z,22.10
2018-08-30T13:04:41.597Z,21.80
2018-08-30T13:07:10.349Z,21.70
2018-08-30T13:09:39.318Z,21.90
2018-08-30T13:12:08.513Z,21.90
2018-08-30T13:14:37.263Z,22.00
2018-08-30T13:17:05.978Z,21.90
2018-08-30T13:19:35.155Z,22.00
2018-08-30T13:22:03.981Z,22.20
2018-08-30T13:24:32.839Z,22.20
2018-08-30T13:27:03.841Z,22.00
2018-08-30T13:29:32.973Z,21.80
2018-08-30T13:32:02.593Z,21.80
2018-08-30T13:34:31.467Z,21.70
2018-08-30T13:37:00.368Z,21.70
2018-08-30T13:39:29.430Z,21.50
2018-08-30T13:41:59.538Z,21.80
2018-08-30T13:44:28.246Z,22.60
2018-08-30T13:46:57.039Z,23.10
2018-08-30T13:49:25.752Z,22.90
2018-08-30T13:51:55.075Z,22.60
2018-08-30T13:54:23.885Z,22.20
2018-08-30T13:56:52.572Z,22.00
2018-08-30T13:59:21.818Z,21.80
2018-08-30T14:01:50.404Z,21.90
2018-08-30T14:04:26.073Z,21.80
2018-08-30T14:06:55.005Z,21.90
2018-08-30T14:09:23.843Z,22.00
2018-08-30T14:11:52.882Z,22.00
2018-08-30T14:14:21.674Z,22.10
2018-08-30T14:16:50.494Z,22.10
2018-08-30T14:19:19.392Z,22.10
2018-08-30T14:21:48.422Z,22.00
2018-08-30T14:24:17.193Z,22.00
2018-08-30T14:26:46.178Z,21.90
2018-08-30T14:29:15.057Z,22.20
2018-08-30T14:31:44.167Z,22.40
2018-08-30T14:34:13.031Z,22.70
2018-08-30T14:36:41.950Z,22.30
2018-08-30T14:39:11.520Z,22.10
2018-08-30T14:41:40.877Z,22.10
2018-08-30T14:44:10.133Z,22.00
2018-08-30T14:46:39.398Z,22.00
2018-08-30T14:49:08.494Z,22.10
2018-08-30T14:51:37.434Z,22.00
2018-08-30T14:54:06.496Z,22.00
2018-08-30T14:56:35.357Z,21.80
2018-08-30T14:59:04.338Z,21.80
2018-08-30T15:01:33.256Z,21.80
2018-08-30T15:04:02.146Z,21.70
2018-08-30T15:06:31.062Z,21.80
2018-08-30T15:09:00.028Z,21.80
2018-08-30T15:11:29.074Z,21.80
2018-08-30T15:14:04.732Z,21.80
2018-08-30T15:16:33.518Z,21.90
2018-08-30T15:19:02.428Z,22.00
2018-08-30T15:21:31.322Z,22.10
2018-08-30T15:24:00.318Z,22.10
2018-08-30T15:26:29.230Z,22.10
2018-08-30T15:28:58.161Z,22.00
2018-08-30T15:31:27.140Z,21.80
2018-08-30T15:33:56.012Z,21.60
2018-08-30T15:36:25.242Z,21.60
2018-08-30T15:38:54.188Z,21.60
2018-08-30T15:41:23.193Z,21.60
2018-08-30T15:43:52.070Z,21.60
2018-08-30T15:46:20.970Z,21.50
2018-08-30T15:48:50.097Z,21.50
2018-08-30T15:51:18.962Z,21.50
2018-08-30T15:53:48.207Z,21.70
2018-08-30T15:56:17.078Z,22.00
2018-08-30T15:58:45.971Z,22.30
2018-08-30T16:01:14.854Z,22.50
2018-08-30T16:03:43.841Z,22.60
2018-08-30T16:06:12.924Z,22.70
2018-08-30T16:08:41.757Z,22.80
2018-08-30T16:11:10.704Z,22.80
2018-08-30T16:13:39.726Z,22.90
2018-08-30T16:16:08.651Z,23.20
2018-08-30T16:18:37.503Z,23.30
2018-08-30T16:21:06.413Z,23.10
2018-08-30T16:23:36.574Z,22.80
2018-08-30T16:26:05.534Z,22.70
2018-08-30T16:28:35.068Z,23.00
2018-08-30T16:31:04.027Z,22.70
2018-08-30T16:33:32.922Z,22.40
2018-08-30T16:36:01.855Z,22.10
2018-08-30T16:38:30.834Z,21.90
2018-08-30T16:40:59.816Z,21.80
2018-08-30T16:43:28.704Z,21.50
2018-08-30T16:45:57.638Z,21.40
2018-08-30T16:48:26.818Z,21.40
2018-08-30T16:50:55.828Z,21.40
2018-08-30T16:53:24.904Z,21.20
2018-08-30T16:55:54.402Z,21.30
2018-08-30T16:58:23.432Z,21.20
2018-08-30T17:00:52.286Z,21.30
2018-08-30T17:03:22.067Z,21.30
2018-08-30T17:05:51.025Z,21.20
2018-08-30T17:08:19.914Z,21.00
2018-08-30T17:10:49.295Z,20.90
2018-08-30T17:13:18.126Z,20.90
2018-08-30T17:15:47.062Z,20.80
2018-08-30T17:18:15.970Z,20.70
2018-08-30T17:20:46.810Z,20.60
2018-08-30T17:23:15.714Z,20.50
2018-08-30T17:25:45.650Z,20.40
2018-08-30T17:28:14.566Z,20.40
2018-08-30T17:30:43.805Z,20.40
2018-08-30T17:33:12.754Z,20.40
2018-08-30T17:35:41.662Z,20.30
2018-08-30T17:38:10.694Z,20.30
2018-08-30T17:40:39.754Z,20.20
2018-08-30T17:43:08.541Z,20.00
2018-08-30T17:45:37.984Z,20.00
2018-08-30T17:48:06.941Z,19.90
2018-08-30T17:50:35.924Z,19.90
2018-08-30T17:53:04.865Z,19.90
2018-08-30T17:55:33.843Z,19.80
2018-08-30T17:58:06.204Z,19.70
2018-08-30T18:00:35.160Z,19.60
2018-08-30T18:03:04.116Z,19.40
2018-08-30T18:05:33.151Z,19.30
2018-08-30T18:08:02.068Z,19.30
2018-08-30T18:10:30.980Z,19.10
2018-08-30T18:13:00.010Z,19.00
2018-08-30T18:15:29.202Z,19.00
2018-08-30T18:17:58.183Z,19.00
2018-08-30T18:20:27.357Z,19.00
2018-08-30T18:22:57.374Z,19.00
2018-08-30T18:25:35.250Z,18.70
2018-08-30T18:28:04.287Z,18.60
2018-08-30T18:30:33.206Z,18.50
2018-08-30T18:33:02.154Z,18.30
2018-08-30T18:35:31.362Z,18.20
2018-08-30T18:38:00.292Z,18.10
2018-08-30T18:40:29.382Z,18.00
2018-08-30T18:42:58.288Z,18.00
2018-08-30T18:45:27.327Z,18.00
2018-08-30T18:47:56.274Z,18.00
2018-08-30T18:50:25.242Z,17.90
2018-08-30T18:52:54.610Z,17.90
2018-08-30T18:55:23.532Z,17.80
2018-08-30T18:57:52.405Z,17.70
2018-08-30T19:00:21.337Z,17.70
2018-08-30T19:02:50.220Z,17.60
2018-08-30T19:05:19.234Z,17.50
2018-08-30T19:07:49.134Z,17.50
2018-08-30T19:10:18.099Z,17.50
2018-08-30T19:12:47.089Z,17.40
2018-08-30T19:15:22.032Z,17.40
2018-08-30T19:17:56.154Z,17.30
2018-08-30T19:20:25.221Z,17.30
2018-08-30T19:22:54.155Z,17.30
2018-08-30T19:25:25.891Z,17.30
2018-08-30T19:27:55.224Z,17.30
2018-08-30T19:30:26.138Z,17.20
2018-08-30T19:32:55.868Z,16.90
2018-08-30T19:35:30.251Z,16.70
2018-08-30T19:38:02.474Z,16.80
2018-08-30T19:40:36.898Z,16.70
2018-08-30T19:43:06.102Z,16.70
2018-08-30T19:45:35.010Z,16.70
2018-08-30T19:48:03.951Z,16.60
2018-08-30T19:50:32.863Z,16.60
2018-08-30T19:53:01.785Z,16.50
2018-08-30T19:55:30.697Z,16.50
2018-08-30T19:57:59.661Z,16.40
2018-08-30T20:00:28.574Z,16.40
2018-08-30T20:02:57.545Z,16.40
2018-08-30T20:05:26.486Z,16.30
2018-08-30T20:07:55.438Z,16.20
2018-08-30T20:10:25.482Z,16.10
2018-08-30T20:12:54.418Z,15.90
2018-08-30T20:15:23.586Z,15.90
2018-08-30T20:17:52.504Z,15.90
2018-08-30T20:20:21.406Z,15.80
2018-08-30T20:22:50.382Z,15.80
2018-08-30T20:25:19.274Z,15.70
2018-08-30T20:27:48.230Z,15.70
2018-08-30T20:30:17.140Z,15.80
2018-08-30T20:32:46.050Z,15.70
2018-08-30T20:35:15.046Z,15.70
2018-08-30T20:37:43.958Z,15.60
2018-08-30T20:40:12.863Z,15.40
2018-08-30T20:42:42.084Z,15.40
2018-08-30T20:46:12.967Z,15.50
2018-08-30T20:48:43.813Z,15.30
2018-08-30T20:51:12.858Z,15.30
2018-08-30T20:53:42.009Z,15.30
2018-08-30T20:56:11.444Z,15.40
2018-08-30T20:58:40.487Z,15.40
2018-08-30T21:01:09.629Z,15.30
2018-08-30T21:03:38.646Z,15.40
2018-08-30T21:06:08.423Z,15.30
2018-08-30T21:08:37.345Z,15.30
2018-08-30T21:11:06.377Z,15.20
2018-08-30T21:13:35.442Z,15.10
2018-08-30T21:16:04.366Z,15.10
2018-08-30T21:18:33.297Z,15.10
2018-08-30T21:21:02.318Z,15.00
2018-08-30T21:23:31.168Z,14.90
2018-08-30T21:26:00.094Z,14.80
2018-08-30T21:28:29.086Z,14.70
2018-08-30T21:30:58.044Z,14.70
2018-08-30T21:33:27.022Z,14.60
2018-08-30T21:35:56.075Z,14.70
2018-08-30T21:38:25.146Z,14.70
2018-08-30T21:40:54.040Z,14.60
2018-08-30T21:43:22.995Z,14.60
2018-08-30T21:45:51.940Z,14.70
2018-08-30T21:48:20.950Z,14.70
2018-08-30T21:50:49.914Z,14.70
2018-08-30T21:53:18.829Z,14.70
2018-08-30T21:55:48.077Z,14.60
2018-08-30T21:58:17.015Z,14.60
2018-08-30T22:00:46.078Z,14.60
2018-08-30T22:03:15.130Z,14.50
2018-08-30T22:05:44.014Z,14.50
2018-08-30T22:08:19.431Z,14.50
2018-08-30T22:10:48.414Z,14.40
2018-08-30T22:13:17.507Z,14.20
2018-08-30T22:15:46.486Z,14.20
2018-08-30T22:18:15.434Z,14.10
2018-08-30T22:20:44.341Z,14.10
2018-08-30T22:23:13.274Z,14.20
2018-08-30T22:25:42.961Z,14.20
2018-08-30T22:28:11.858Z,14.20
2018-08-30T22:30:40.754Z,14.10
2018-08-30T22:33:09.857Z,13.90
2018-08-30T22:35:38.761Z,13.80
2018-08-30T22:38:07.669Z,13.90
2018-08-30T22:40:36.581Z,13.70
2018-08-30T22:43:05.473Z,13.60
2018-08-30T22:45:34.448Z,13.70
2018-08-30T22:48:03.373Z,13.60
2018-08-30T22:50:32.262Z,13.70
2018-08-30T22:53:01.168Z,13.80
2018-08-30T22:55:30.054Z,13.60
2018-08-30T22:57:58.976Z,13.50
2018-08-30T23:00:27.886Z,13.60
2018-08-30T23:02:56.794Z,13.50
2018-08-30T23:05:25.813Z,13.60
2018-08-30T23:07:54.734Z,13.60
2018-08-30T23:10:23.630Z,13.60
2018-08-30T23:12:52.598Z,13.70
2018-08-30T23:15:21.494Z,13.60
2018-08-30T23:17:50.998Z,13.50
2018-08-30T23:20:19.893Z,13.40
2018-08-30T23:22:48.815Z,13.30
2018-08-30T23:25:17.718Z,13.30
2018-08-30T23:27:46.606Z,13.30
2018-08-30T23:30:15.513Z,13.40
2018-08-30T23:32:44.486Z,13.40
2018-08-30T23:35:13.482Z,13.30
2018-08-30T23:37:43.073Z,13.40
2018-08-30T23:40:11.973Z,13.40
2018-08-30T23:42:40.966Z,13.30
2018-08-30T23:45:09.891Z,13.40
2018-08-30T23:47:38.823Z,13.30
2018-08-30T23:50:07.769Z,13.20
2018-08-30T23:52:36.927Z,13.20
2018-08-30T23:55:05.985Z,13.10
2018-08-30T23:57:34.912Z,12.90
